РПИ Актобе

Руководитель РПИ

Evgeny Vygornitsky*

Инструкторы РПИ
Evgeny Vygornitsky (Supervisor)
Vitaliy Alekseyev (Instructor)
Входит в состав
ЗЦ Центральная Азия

Диспетчеры РПИ

Диспетчер Рейтинг Допуски *

Аэропорты РПИ

ICAO Город Название Погода
UATT Актобе Актобе UATT 161930Z 23009MPS 4400 -SHSN BLSN SCT018CB BKN036 M06/M08 Q1004 NOSIG RMK QFE733/0977
UATG Атырау Атырау UATG 161930Z 22005MPS 5000 BR SCT033CB M02/M03 Q1012 NOSIG RMK QFE761/1014
UARR Уральск Уральск UARR 161900Z 25003MPS CAVOK M12/M13 Q1006 NOSIG RMK QFE751/1001